Time;durP1;ratioP1;P1;durP2;ratioP2;P2;SDS_P1;SDS_P2;PMS_P1;PMS_P2;Temp;Humidity;BMP_temperature;BMP_pressure;BME280_temperature;BME280_humidity;BME280_pressure;Samples;Min_cycle;Max_cycle;Signal;HPM_P1;HPM_P2
2023/04/06 00:00:08;;;;;;;;;;;;;;;-0.76;80.28;93070.97;5046676;28;19927;-39
2023/04/06 00:02:34;;;;;;;;;;;;;;;-0.86;79.89;93072.38;5031117;28;19967;-39
2023/04/06 00:05:00;;;;;;;;;;;;;;;-0.84;80.82;93066.47;5031039;28;19957;-39
2023/04/06 00:07:26;;;;;;;;;;;;;;;-0.84;81.12;93059.09;5031288;28;19935;-39
2023/04/06 00:09:51;;;;;;;;;;;;;;;-0.73;80.25;93063.84;5031000;28;19937;-39
2023/04/06 00:12:16;;;;;;;;;;;;;;;-0.85;80.36;93062.31;5031025;28;19964;-38
2023/04/06 00:14:42;;;;;;;;;;;;;;;-0.94;80.07;93057.81;5031144;28;19935;-39
2023/04/06 00:17:07;;;;;;;;;;;;;;;-0.96;79.78;93054.84;5031289;28;20429;-39
2023/04/06 00:19:33;;;;;;;;;;;;;;;-1.04;80.29;93053.09;5030593;28;20457;-39
2023/04/06 00:21:58;;;;;;;;;;;;;;;-0.91;80.47;93056.84;5030004;28;19934;-39
2023/04/06 00:24:23;;;;;;;;;;;;;;;-0.92;80.23;93046.50;5030750;28;19958;-39
2023/04/06 00:26:49;;;;;;;;;;;;;;;-0.99;81.16;93046.94;5030751;28;19961;-39
2023/04/06 00:29:14;;;;;;;;;;;;;;;-0.89;81.19;93040.13;5030932;28;19937;-39
2023/04/06 00:31:40;;;;;;;;;;;;;;;-0.89;80.68;93035.41;5035399;28;19990;-39
2023/04/06 00:34:06;;;;;;;;;;;;;;;-0.93;81.18;93043.03;5050392;28;19931;-39
2023/04/06 00:36:31;;;;;;;;;;;;;;;-0.97;81.96;93039.06;5050292;28;19980;-39
2023/04/06 00:38:56;;;;;;;;;;;;;;;-0.91;81.41;93037.88;5032006;28;19965;-39
2023/04/06 00:41:22;;;;;;;;;;;;;;;-0.91;81.10;93040.56;5030321;28;19935;-39
2023/04/06 00:43:47;;;;;;;;;;;;;;;-1.11;82.80;93038.03;5030221;28;19959;-39
2023/04/06 00:46:12;;;;;;;;;;;;;;;-0.92;82.12;93038.38;5045860;28;19942;-39
2023/04/06 00:48:39;;;;;;;;;;;;;;;-1.11;82.05;93029.91;5030136;28;20342;-39
2023/04/06 00:51:04;;;;;;;;;;;;;;;-1.07;82.71;93022.28;5030429;28;19956;-39
2023/04/06 00:53:29;;;;;;;;;;;;;;;-1.10;82.96;93022.50;5030173;28;20500;-39
2023/04/06 00:55:54;;;;;;;;;;;;;;;-1.09;83.20;93022.03;5030112;28;19929;-39
2023/04/06 00:58:20;;;;;;;;;;;;;;;-1.03;83.23;93022.03;5030495;28;19947;-39
2023/04/06 01:00:45;;;;;;;;;;;;;;;-1.12;83.19;93016.81;5030208;28;19996;-39
2023/04/06 01:03:10;;;;;;;;;;;;;;;-1.05;83.64;93019.06;5045394;28;19938;-39
2023/04/06 01:05:40;;;;;;;;;;;;;;;-1.09;84.06;93018.56;5029778;28;20011;-39
2023/04/06 01:08:05;;;;;;;;;;;;;;;-1.05;83.74;93016.38;5030243;28;19927;-39
2023/04/06 01:10:31;;;;;;;;;;;;;;;-0.95;83.92;93014.94;5030217;28;19939;-39
2023/04/06 01:12:56;;;;;;;;;;;;;;;-0.94;83.95;93013.72;5030092;28;19938;-39
2023/04/06 01:15:21;;;;;;;;;;;;;;;-0.88;83.84;93007.09;5029830;28;19939;-39
2023/04/06 01:17:47;;;;;;;;;;;;;;;-0.83;82.85;93005.66;5030042;28;19951;-39
2023/04/06 01:20:12;;;;;;;;;;;;;;;-0.80;83.94;92999.22;5029937;28;20364;-39
2023/04/06 01:22:37;;;;;;;;;;;;;;;-0.76;83.67;92997.06;5029759;28;19932;-39
2023/04/06 01:25:03;;;;;;;;;;;;;;;-0.68;82.95;93000.78;5029491;28;20006;-39
2023/04/06 01:27:29;;;;;;;;;;;;;;;-0.76;82.78;92999.78;5029401;28;19931;-39
2023/04/06 01:29:55;;;;;;;;;;;;;;;-0.77;83.62;92990.16;5029562;28;19927;-39
2023/04/06 01:32:20;;;;;;;;;;;;;;;-0.79;82.84;92992.59;5028826;28;20037;-39
2023/04/06 01:34:46;;;;;;;;;;;;;;;-0.84;83.12;92985.19;5043148;28;19988;-39
2023/04/06 01:37:11;;;;;;;;;;;;;;;-0.83;84.23;92984.72;5049356;28;19952;-39
2023/04/06 01:39:36;;;;;;;;;;;;;;;-0.73;83.47;92990.66;5049113;28;19935;-39
2023/04/06 01:42:01;;;;;;;;;;;;;;;-0.80;83.43;92980.25;5048690;28;19943;-39
2023/04/06 01:44:30;;;;;;;;;;;;;;;-0.80;83.97;92982.97;5049169;28;19949;-39
2023/04/06 01:46:55;;;;;;;;;;;;;;;-0.81;83.58;92984.22;5049639;28;20033;-39
2023/04/06 01:49:20;;;;;;;;;;;;;;;-0.72;84.44;92972.41;5049383;28;20505;-39
2023/04/06 01:51:45;;;;;;;;;;;;;;;-0.88;84.02;92971.13;5049240;28;20532;-39
2023/04/06 01:54:11;;;;;;;;;;;;;;;-0.88;84.52;92976.53;5049258;28;20033;-39
2023/04/06 01:56:36;;;;;;;;;;;;;;;-0.98;85.06;92965.19;5049097;28;19933;-39
2023/04/06 01:59:02;;;;;;;;;;;;;;;-0.87;83.61;92969.91;5049117;28;19934;-39
2023/04/06 02:01:27;;;;;;;;;;;;;;;-0.90;83.52;92963.50;5048837;28;20048;-39
2023/04/06 02:03:52;;;;;;;;;;;;;;;-0.95;83.07;92960.75;5048948;28;19970;-39
2023/04/06 02:06:17;;;;;;;;;;;;;;;-1.09;84.48;92957.00;5048948;28;19927;-39
2023/04/06 02:08:43;;;;;;;;;;;;;;;-1.11;84.18;92959.47;5048994;28;19935;-39
2023/04/06 02:11:08;;;;;;;;;;;;;;;-1.18;84.70;92956.47;5048826;28;19999;-39
2023/04/06 02:13:34;;;;;;;;;;;;;;;-1.15;84.75;92958.22;5045134;28;19924;-39
2023/04/06 02:15:59;;;;;;;;;;;;;;;-1.17;85.77;92960.66;5029044;28;20008;-39
2023/04/06 02:18:25;;;;;;;;;;;;;;;-1.16;85.78;92957.47;5028712;28;19934;-39
2023/04/06 02:20:50;;;;;;;;;;;;;;;-1.17;86.14;92960.66;5028936;28;20034;-39
2023/04/06 02:23:16;;;;;;;;;;;;;;;-1.11;85.96;92959.47;5028716;28;19954;-39
2023/04/06 02:25:41;;;;;;;;;;;;;;;-0.95;84.85;92958.03;5028442;28;20706;-39
2023/04/06 02:28:07;;;;;;;;;;;;;;;-0.99;85.53;92958.28;5028591;28;19936;-39
2023/04/06 02:30:32;;;;;;;;;;;;;;;-1.06;85.81;92958.00;5028587;28;19946;-39
2023/04/06 02:32:58;;;;;;;;;;;;;;;-0.94;86.30;92959.53;5028216;28;20422;-39
2023/04/06 02:35:24;;;;;;;;;;;;;;;-0.96;85.52;92959.28;5047345;28;19931;-39
2023/04/06 02:37:50;;;;;;;;;;;;;;;-1.07;85.82;92959.97;5048728;28;19937;-39
2023/04/06 02:40:15;;;;;;;;;;;;;;;-1.13;86.36;92969.31;5048501;28;19927;-39
2023/04/06 02:42:40;;;;;;;;;;;;;;;-1.13;86.25;92953.78;5048615;28;20464;-39
2023/04/06 02:45:06;;;;;;;;;;;;;;;-1.19;86.45;92961.13;5051850;28;20342;-39
2023/04/06 02:47:31;;;;;;;;;;;;;;;-1.02;86.75;92963.94;5052760;28;19938;-39
2023/04/06 02:49:56;;;;;;;;;;;;;;;-1.12;86.88;92960.69;5052276;28;19938;-39
2023/04/06 02:52:22;;;;;;;;;;;;;;;-1.14;86.63;92954.25;5052192;28;19959;-39
2023/04/06 02:54:47;;;;;;;;;;;;;;;-1.07;86.50;92959.22;5052815;28;20395;-39
2023/04/06 02:57:12;;;;;;;;;;;;;;;-1.09;86.66;92956.25;5052637;28;19995;-39
2023/04/06 02:59:38;;;;;;;;;;;;;;;-1.06;86.39;92955.31;5052276;28;19934;-39
2023/04/06 03:02:03;;;;;;;;;;;;;;;-0.98;86.06;92953.59;5052013;28;19966;-39
2023/04/06 03:04:28;;;;;;;;;;;;;;;-1.14;86.77;92960.44;5052444;28;19957;-39
2023/04/06 03:06:54;;;;;;;;;;;;;;;-1.16;87.31;92962.88;5052049;28;20321;-39
2023/04/06 03:09:19;;;;;;;;;;;;;;;-1.00;87.12;92964.19;5052014;28;19939;-39
2023/04/06 03:11:45;;;;;;;;;;;;;;;-0.99;87.13;92968.38;5051920;28;19972;-39
2023/04/06 03:14:10;;;;;;;;;;;;;;;-1.10;87.47;92960.19;5043355;28;19936;-39
2023/04/06 03:16:35;;;;;;;;;;;;;;;-1.05;87.30;92962.19;5032317;28;19931;-39
2023/04/06 03:19:01;;;;;;;;;;;;;;;-1.03;87.80;92963.19;5032212;28;19931;-39
2023/04/06 03:21:26;;;;;;;;;;;;;;;-1.09;88.24;92957.00;5031829;28;20453;-39
2023/04/06 03:23:51;;;;;;;;;;;;;;;-1.02;87.45;92953.09;5031886;28;19961;-39
2023/04/06 03:26:17;;;;;;;;;;;;;;;-1.13;87.75;92967.34;5031778;28;19936;-39
2023/04/06 03:28:42;;;;;;;;;;;;;;;-1.09;88.28;92961.69;5031791;28;20031;-39
2023/04/06 03:31:07;;;;;;;;;;;;;;;-1.14;87.88;92965.09;5031749;28;19973;-39
2023/04/06 03:33:33;;;;;;;;;;;;;;;-1.06;87.74;92964.16;5035759;28;19936;-39
2023/04/06 03:35:58;;;;;;;;;;;;;;;-1.07;87.63;92961.94;5051570;28;19950;-39
2023/04/06 03:38:23;;;;;;;;;;;;;;;-1.20;88.11;92965.09;5051886;28;19964;-39
2023/04/06 03:40:49;;;;;;;;;;;;;;;-1.19;88.52;92963.84;5051432;28;20020;-39
2023/04/06 03:43:14;;;;;;;;;;;;;;;-1.05;88.53;92962.19;5051526;28;19930;-39
2023/04/06 03:45:39;;;;;;;;;;;;;;;-1.06;88.71;92966.13;5051644;28;19957;-39
2023/04/06 03:48:05;;;;;;;;;;;;;;;-0.89;88.27;92969.66;5051724;28;20029;-39
2023/04/06 03:50:30;;;;;;;;;;;;;;;-1.06;88.25;92963.44;5051274;28;19965;-39
2023/04/06 03:52:56;;;;;;;;;;;;;;;-1.06;88.63;92966.13;5051791;28;20020;-39
2023/04/06 03:55:21;;;;;;;;;;;;;;;-1.07;88.28;92959.22;5051521;28;19923;-39
2023/04/06 03:57:46;;;;;;;;;;;;;;;-1.07;88.26;92965.38;5051366;28;19927;-39
2023/04/06 04:00:12;;;;;;;;;;;;;;;-0.96;88.87;92965.44;5051343;28;19941;-39
2023/04/06 04:02:37;;;;;;;;;;;;;;;-0.89;88.36;92964.97;5049910;28;19966;-39
2023/04/06 04:05:03;;;;;;;;;;;;;;;-0.88;88.02;92961.03;5051445;28;19958;-39
2023/04/06 04:07:28;;;;;;;;;;;;;;;-0.94;88.17;92964.94;5051468;28;20373;-39
2023/04/06 04:09:53;;;;;;;;;;;;;;;-0.94;89.05;92964.94;5051555;28;19931;-39
2023/04/06 04:12:19;;;;;;;;;;;;;;;-0.93;88.60;92967.16;5051407;28;19937;-39
2023/04/06 04:14:44;;;;;;;;;;;;;;;-0.95;88.76;92964.19;5037826;28;20338;-39
2023/04/06 04:17:09;;;;;;;;;;;;;;;-0.85;88.40;92968.19;5031100;28;19929;-39
2023/04/06 04:19:35;;;;;;;;;;;;;;;-0.77;87.95;92968.47;5031043;28;19935;-39
2023/04/06 04:22:00;;;;;;;;;;;;;;;-0.86;87.57;92960.53;5031251;28;19933;-39
2023/04/06 04:24:26;;;;;;;;;;;;;;;-0.76;87.85;92973.38;5031131;28;20345;-39
2023/04/06 04:26:51;;;;;;;;;;;;;;;-0.69;87.11;92976.88;5030732;28;20427;-39
2023/04/06 04:29:16;;;;;;;;;;;;;;;-0.66;86.74;92976.63;5030805;28;20326;-39
2023/04/06 04:31:41;;;;;;;;;;;;;;;-0.79;87.15;92973.63;5030531;28;19938;-39
2023/04/06 04:34:07;;;;;;;;;;;;;;;-0.76;86.95;92969.97;5039128;28;19925;-39
2023/04/06 04:36:32;;;;;;;;;;;;;;;-0.80;87.41;92975.59;5050393;28;19936;-39
2023/04/06 04:38:57;;;;;;;;;;;;;;;-0.77;87.24;92976.59;5050428;28;20080;-39
2023/04/06 04:41:23;;;;;;;;;;;;;;;-0.79;87.30;92973.63;5050228;28;19941;-39
2023/04/06 04:43:48;;;;;;;;;;;;;;;-0.73;87.37;92974.38;5050527;28;19940;-39
2023/04/06 04:46:13;;;;;;;;;;;;;;;-0.87;87.44;92969.91;5050524;28;20312;-39
2023/04/06 04:48:39;;;;;;;;;;;;;;;-0.89;87.64;92970.38;5050230;28;19930;-39
2023/04/06 04:51:05;;;;;;;;;;;;;;;-0.80;88.25;92967.47;5050103;28;19939;-39
2023/04/06 04:53:30;;;;;;;;;;;;;;;-0.72;87.43;92967.75;5050356;28;19964;-39
2023/04/06 04:55:55;;;;;;;;;;;;;;;-0.65;87.33;92969.97;5050130;28;19931;-39
2023/04/06 04:58:21;;;;;;;;;;;;;;;-0.60;87.38;92969.25;5050072;28;19989;-39
2023/04/06 05:00:46;;;;;;;;;;;;;;;-0.55;87.33;92973.22;5065246;28;19967;-39
2023/04/06 05:03:14;;;;;;;;;;;;;;;-0.50;86.39;92967.81;5050285;28;19942;-39
2023/04/06 05:05:39;;;;;;;;;;;;;;;-0.59;85.59;92970.00;5065434;28;19960;-39
2023/04/06 05:08:05;;;;;;;;;;;;;;;-0.59;86.18;92976.16;5049441;28;19925;-39
2023/04/06 05:10:30;;;;;;;;;;;;;;;-0.47;85.84;92976.91;5049870;28;19935;-39
2023/04/06 05:12:55;;;;;;;;;;;;;;;-0.56;85.54;92971.75;5049687;28;19935;-39
2023/04/06 05:15:21;;;;;;;;;;;;;;;-0.56;85.96;92979.88;5050100;28;19936;-39
2023/04/06 05:17:46;;;;;;;;;;;;;;;-0.55;85.44;92978.63;5049719;28;20315;-39
2023/04/06 05:20:11;;;;;;;;;;;;;;;-0.60;86.60;92985.53;5049770;28;20034;-39
2023/04/06 05:22:36;;;;;;;;;;;;;;;-0.47;85.92;92985.81;5049768;28;19938;-39
2023/04/06 05:25:02;;;;;;;;;;;;;;;-0.47;85.47;92982.34;5049659;28;20053;-39
2023/04/06 05:27:27;;;;;;;;;;;;;;;-0.41;85.02;92980.41;5043437;28;19927;-39
2023/04/06 05:29:53;;;;;;;;;;;;;;;-0.31;84.50;92976.97;5029794;28;20468;-39
2023/04/06 05:32:21;;;;;;;;;;;;;;;-0.25;85.08;92968.84;5032887;28;19942;-39
2023/04/06 05:34:47;;;;;;;;;;;;;;;-0.15;84.85;92976.25;5043224;28;19939;-39
2023/04/06 05:37:12;;;;;;;;;;;;;;;-0.18;84.19;92985.38;5049826;28;19927;-39
2023/04/06 05:39:38;;;;;;;;;;;;;;;-0.04;83.34;92970.84;5049563;28;19941;-39
2023/04/06 05:42:04;;;;;;;;;;;;;;;0.00;83.62;92974.03;5049723;28;19970;-39
2023/04/06 05:44:32;;;;;;;;;;;;;;;0.04;82.81;92970.34;5049662;28;19966;-39
2023/04/06 05:46:57;;;;;;;;;;;;;;;0.11;82.02;92962.44;5049296;28;19930;-39
2023/04/06 05:49:23;;;;;;;;;;;;;;;0.11;82.67;92964.44;5049445;28;19939;-39
2023/04/06 05:51:48;;;;;;;;;;;;;;;-0.01;82.46;92964.44;5049423;28;19939;-39
2023/04/06 05:54:13;;;;;;;;;;;;;;;0.05;83.41;92964.44;5048990;28;20431;-39
2023/04/06 05:56:39;;;;;;;;;;;;;;;0.22;82.01;92970.59;5049037;28;19968;-39
2023/04/06 05:59:04;;;;;;;;;;;;;;;0.22;81.89;92964.44;5049142;28;19932;-39
2023/04/06 06:01:30;;;;;;;;;;;;;;;0.31;81.76;92962.22;5048833;28;20002;-39
2023/04/06 06:03:55;;;;;;;;;;;;;;;0.22;81.58;92964.44;5043224;28;19984;-39
2023/04/06 06:06:20;;;;;;;;;;;;;;;0.44;81.95;92961.72;5028420;28;20477;-39
2023/04/06 06:08:45;;;;;;;;;;;;;;;0.29;81.80;92970.13;5028343;28;19935;-39
2023/04/06 06:11:11;;;;;;;;;;;;;;;0.16;82.33;92964.44;5028733;28;19927;-39
2023/04/06 06:13:36;;;;;;;;;;;;;;;0.38;82.05;92964.44;5028204;28;20664;-39
2023/04/06 06:16:04;;;;;;;;;;;;;;;0.52;80.66;92960.00;5028391;28;20018;-39
2023/04/06 06:18:30;;;;;;;;;;;;;;;0.62;80.76;92955.75;5027439;28;19945;-39
2023/04/06 06:20:55;;;;;;;;;;;;;;;0.61;80.54;92946.13;5028591;28;19932;-39
2023/04/06 06:23:21;;;;;;;;;;;;;;;0.61;80.81;92955.03;5027980;28;19959;-39
2023/04/06 06:25:46;;;;;;;;;;;;;;;0.75;79.67;92947.84;5028399;28;20438;-39
2023/04/06 06:28:11;;;;;;;;;;;;;;;0.81;79.99;92959.44;5028439;28;20018;-39
2023/04/06 06:30:36;;;;;;;;;;;;;;;0.77;78.24;92956.97;5028464;28;20357;-39
2023/04/06 06:33:03;;;;;;;;;;;;;;;0.76;79.10;92957.44;5029828;28;19932;-39
2023/04/06 06:35:28;;;;;;;;;;;;;;;0.59;80.07;92954.03;5029856;28;19933;-39
2023/04/06 06:37:53;;;;;;;;;;;;;;;0.80;78.56;92963.41;5028717;28;19945;-39
2023/04/06 06:40:19;;;;;;;;;;;;;;;0.80;78.86;92957.97;5028535;28;20378;-39
2023/04/06 06:42:45;;;;;;;;;;;;;;;0.72;79.04;92963.16;5027782;28;20020;-39
2023/04/06 06:45:10;;;;;;;;;;;;;;;0.77;79.56;92956.97;5028685;28;20032;-39
2023/04/06 06:47:35;;;;;;;;;;;;;;;1.06;79.49;92974.66;5028283;28;19940;-39
2023/04/06 06:50:02;;;;;;;;;;;;;;;0.85;78.47;92968.06;5028577;28;20019;-39
2023/04/06 06:52:28;;;;;;;;;;;;;;;0.86;78.06;92966.84;5028740;28;20325;-39
2023/04/06 06:54:54;;;;;;;;;;;;;;;1.05;77.61;92967.00;5028713;28;19954;-39
2023/04/06 06:57:19;;;;;;;;;;;;;;;1.19;77.86;92972.16;5048352;28;19934;-39
2023/04/06 06:59:44;;;;;;;;;;;;;;;1.40;77.06;92962.44;5048155;28;19949;-39
2023/04/06 07:02:10;;;;;;;;;;;;;;;1.45;76.06;92967.09;5048180;28;19966;-39
2023/04/06 07:04:35;;;;;;;;;;;;;;;1.71;75.26;92966.00;5048184;28;19947;-39
2023/04/06 07:07:01;;;;;;;;;;;;;;;1.53;75.41;92965.34;5048577;28;19937;-39
2023/04/06 07:09:26;;;;;;;;;;;;;;;1.22;76.50;92960.28;5048134;28;20332;-39
2023/04/06 07:11:51;;;;;;;;;;;;;;;1.27;76.54;92967.69;5048254;28;19938;-39
2023/04/06 07:14:17;;;;;;;;;;;;;;;1.39;76.34;92963.69;5038636;28;19932;-39
2023/04/06 07:16:44;;;;;;;;;;;;;;;1.46;75.37;92962.41;5028251;28;19936;-39
2023/04/06 07:19:10;;;;;;;;;;;;;;;1.40;76.34;92964.41;5028243;28;20022;-39
2023/04/06 07:21:35;;;;;;;;;;;;;;;1.39;76.43;92950.06;5028469;28;19954;-39
2023/04/06 07:24:01;;;;;;;;;;;;;;;1.38;77.39;92956.78;5028008;28;20454;-39
2023/04/06 07:26:27;;;;;;;;;;;;;;;1.54;76.08;92958.66;5028150;28;19931;-39
2023/04/06 07:28:52;;;;;;;;;;;;;;;1.59;74.96;92959.88;5028490;28;20497;-39
2023/04/06 07:31:17;;;;;;;;;;;;;;;1.74;75.11;92954.09;5033696;28;19927;-39
2023/04/06 07:33:43;;;;;;;;;;;;;;;1.57;75.39;92948.75;5049071;28;20391;-39
2023/04/06 07:36:08;;;;;;;;;;;;;;;1.60;75.23;92955.91;5031874;28;20412;-39
2023/04/06 07:38:33;;;;;;;;;;;;;;;1.70;75.74;92957.09;5031799;28;20012;-39
2023/04/06 07:40:59;;;;;;;;;;;;;;;1.72;75.36;92962.03;5031957;28;19917;-39
2023/04/06 07:43:24;;;;;;;;;;;;;;;1.69;75.49;92950.16;5031654;28;19917;-39
2023/04/06 07:45:50;;;;;;;;;;;;;;;1.83;74.48;92953.78;5031728;28;19921;-39
2023/04/06 07:48:15;;;;;;;;;;;;;;;1.71;75.35;92955.13;5031558;28;19921;-39
2023/04/06 07:50:40;;;;;;;;;;;;;;;1.60;76.52;92966.81;5031452;28;19917;-39
2023/04/06 07:53:06;;;;;;;;;;;;;;;1.63;75.88;92960.34;5031862;28;19983;-39
2023/04/06 07:55:31;;;;;;;;;;;;;;;1.63;76.53;92965.78;5037121;28;19917;-39
2023/04/06 07:57:56;;;;;;;;;;;;;;;1.74;75.08;92954.84;5051649;28;19912;-39
2023/04/06 08:00:21;;;;;;;;;;;;;;;1.75;74.91;92963.75;5051057;28;19966;-39
2023/04/06 08:02:47;;;;;;;;;;;;;;;1.74;74.82;92965.72;5051232;28;19958;-39
2023/04/06 08:05:12;;;;;;;;;;;;;;;1.77;75.08;92958.53;5051297;28;19920;-39
2023/04/06 08:07:37;;;;;;;;;;;;;;;1.64;76.23;92958.38;5051147;28;19936;-39
2023/04/06 08:10:03;;;;;;;;;;;;;;;1.55;75.82;92962.13;5051372;28;19912;-39
2023/04/06 08:12:28;;;;;;;;;;;;;;;1.64;75.96;92966.53;5051244;28;20340;-39
2023/04/06 08:14:54;;;;;;;;;;;;;;;1.44;76.72;92964.88;5036162;28;19924;-39
2023/04/06 08:17:19;;;;;;;;;;;;;;;1.27;77.71;92962.25;5031118;28;19955;-39
2023/04/06 08:19:45;;;;;;;;;;;;;;;1.54;75.62;92966.81;5031102;28;19921;-39
2023/04/06 08:22:10;;;;;;;;;;;;;;;1.43;75.77;92979.72;5030918;28;20482;-39
2023/04/06 08:24:36;;;;;;;;;;;;;;;1.32;76.58;92980.50;5030561;28;19971;-39
2023/04/06 08:27:01;;;;;;;;;;;;;;;1.26;76.43;92979.06;5031134;28;19921;-39
2023/04/06 08:29:27;;;;;;;;;;;;;;;1.36;76.93;92977.53;5030578;28;19920;-39
2023/04/06 08:31:52;;;;;;;;;;;;;;;1.38;77.57;92969.63;5037430;28;19913;-39
2023/04/06 08:34:17;;;;;;;;;;;;;;;1.60;77.13;92969.53;5050399;28;20316;-39
2023/04/06 08:36:42;;;;;;;;;;;;;;;1.72;75.24;92972.91;5050484;28;19913;-39
2023/04/06 08:39:08;;;;;;;;;;;;;;;1.68;76.34;92975.91;5050433;28;19912;-39
2023/04/06 08:41:33;;;;;;;;;;;;;;;2.05;74.40;92970.75;5049331;28;19912;-39
2023/04/06 08:43:59;;;;;;;;;;;;;;;1.88;73.84;92977.53;5065651;28;19919;-39
2023/04/06 08:46:29;;;;;;;;;;;;;;;1.97;73.95;92977.22;5047474;28;19985;-39
2023/04/06 08:48:54;;;;;;;;;;;;;;;2.11;72.70;92974.16;5030345;28;19951;-39
2023/04/06 08:51:20;;;;;;;;;;;;;;;2.27;73.29;92973.28;5030074;28;20452;-38
2023/04/06 08:53:46;;;;;;;;;;;;;;;2.46;72.46;92969.94;5030158;28;19975;-39
2023/04/06 08:56:11;;;;;;;;;;;;;;;2.55;71.90;92967.63;5041112;28;19927;-39
2023/04/06 08:58:37;;;;;;;;;;;;;;;2.81;70.61;92964.41;5065461;28;19912;-39
2023/04/06 09:01:04;;;;;;;;;;;;;;;2.97;70.13;92975.16;5065398;28;19920;-39
2023/04/06 09:03:29;;;;;;;;;;;;;;;2.82;70.10;92965.88;5065312;28;19920;-39
2023/04/06 09:05:55;;;;;;;;;;;;;;;3.04;68.94;92966.41;5065483;28;20383;-39
2023/04/06 09:08:20;;;;;;;;;;;;;;;2.94;68.86;92970.75;5043104;28;20397;-39
2023/04/06 09:10:45;;;;;;;;;;;;;;;2.79;69.75;92970.38;5029902;28;19923;-39
2023/04/06 09:13:11;;;;;;;;;;;;;;;2.89;69.71;92962.59;5061918;28;19926;-39
2023/04/06 09:15:36;;;;;;;;;;;;;;;3.13;69.01;92962.59;5029748;28;19913;-39
2023/04/06 09:18:02;;;;;;;;;;;;;;;3.54;66.71;92973.28;5045536;28;20004;-39
2023/04/06 09:20:28;;;;;;;;;;;;;;;3.58;66.51;92962.81;5029708;28;19913;-39
2023/04/06 09:22:54;;;;;;;;;;;;;;;3.67;67.11;92965.19;5029767;28;20381;-39
2023/04/06 09:25:20;;;;;;;;;;;;;;;3.69;66.06;92965.41;5029575;28;19974;-39
2023/04/06 09:27:46;;;;;;;;;;;;;;;3.58;66.21;92962.81;5029547;28;20033;-39
2023/04/06 09:30:16;;;;;;;;;;;;;;;3.81;66.05;92961.28;5029600;28;20008;-39
2023/04/06 09:32:46;;;;;;;;;;;;;;;3.72;65.63;92958.91;5029618;28;19971;-39
2023/04/06 09:35:12;;;;;;;;;;;;;;;3.74;65.58;92951.69;5047106;28;19921;-39
2023/04/06 09:37:37;;;;;;;;;;;;;;;3.62;65.96;92953.06;5049547;28;19912;-39
2023/04/06 09:40:03;;;;;;;;;;;;;;;3.69;66.64;92954.47;5049658;28;19966;-39
2023/04/06 09:42:28;;;;;;;;;;;;;;;3.86;66.64;92946.81;5049276;28;20411;-39
2023/04/06 09:44:54;;;;;;;;;;;;;;;4.18;65.05;92958.50;5049261;28;19920;-39
2023/04/06 09:47:20;;;;;;;;;;;;;;;4.59;62.62;92945.19;5049542;28;19920;-39
2023/04/06 09:49:48;;;;;;;;;;;;;;;4.79;62.17;92952.06;5064636;28;19944;-39
2023/04/06 09:52:14;;;;;;;;;;;;;;;4.56;62.60;92950.97;5048972;28;19913;-39
2023/04/06 09:54:39;;;;;;;;;;;;;;;4.36;63.45;92948.81;5064387;28;19920;-39
2023/04/06 09:57:11;;;;;;;;;;;;;;;4.43;62.25;92946.22;5048748;28;19928;-39
2023/04/06 09:59:51;;;;;;;;;;;;;;;4.60;62.50;92943.19;5029066;28;19921;-39
2023/04/06 10:02:35;;;;;;;;;;;;;;;5.02;60.94;92947.69;5028203;28;19925;-39
2023/04/06 10:05:01;;;;;;;;;;;;;;;5.20;60.61;92943.38;5029387;28;19925;-39
2023/04/06 10:07:26;;;;;;;;;;;;;;;5.03;61.27;92946.41;5029205;28;20459;-39
2023/04/06 10:09:51;;;;;;;;;;;;;;;5.53;58.70;92942.72;5027675;28;19913;-39
2023/04/06 10:12:17;;;;;;;;;;;;;;;5.69;58.64;92930.72;5027562;28;19917;-39
2023/04/06 10:14:42;;;;;;;;;;;;;;;5.68;58.76;92929.22;5028863;28;20401;-39
2023/04/06 10:17:07;;;;;;;;;;;;;;;5.72;58.63;92920.69;5029201;28;20010;-39
2023/04/06 10:19:47;;;;;;;;;;;;;;;6.08;57.44;92925.16;5028730;28;20007;-39
2023/04/06 10:22:12;;;;;;;;;;;;;;;6.54;57.07;92925.59;5044394;28;19913;-39
2023/04/06 10:24:37;;;;;;;;;;;;;;;6.94;56.13;92924.09;5028624;28;20458;-39
2023/04/06 10:27:03;;;;;;;;;;;;;;;6.73;55.56;92917.91;5029000;28;19924;-39
2023/04/06 10:29:40;;;;;;;;;;;;;;;7.16;55.92;92920.03;5028590;28;20435;-39
2023/04/06 10:32:05;;;;;;;;;;;;;;;6.75;54.26;92913.34;5028174;28;19921;-39
2023/04/06 10:34:34;;;;;;;;;;;;;;;6.96;54.36;92915.31;5040719;28;19917;-39
2023/04/06 10:37:00;;;;;;;;;;;;;;;6.75;55.13;92910.59;5048829;28;20114;-39
2023/04/06 10:39:26;;;;;;;;;;;;;;;6.66;55.05;92902.09;5063813;28;20015;-39
2023/04/06 10:41:51;;;;;;;;;;;;;;;6.22;55.10;92909.38;5048405;28;19969;-39
2023/04/06 10:44:20;;;;;;;;;;;;;;;6.57;55.18;92905.31;5063902;28;19921;-39
2023/04/06 10:47:00;;;;;;;;;;;;;;;6.53;55.04;92911.16;5048242;28;19924;-39
2023/04/06 10:49:26;;;;;;;;;;;;;;;6.63;55.59;92901.16;5048222;28;19917;-39
2023/04/06 10:51:53;;;;;;;;;;;;;;;6.67;56.25;92900.84;5048293;28;19921;-39
2023/04/06 10:54:18;;;;;;;;;;;;;;;6.93;56.63;92900.66;5064071;28;19944;-39
2023/04/06 10:56:43;;;;;;;;;;;;;;;6.98;55.36;92897.03;5048310;28;20286;-39
2023/04/06 10:59:08;;;;;;;;;;;;;;;7.15;54.53;92893.84;5048230;28;19912;-39
2023/04/06 11:01:34;;;;;;;;;;;;;;;7.27;54.37;92898.50;5047868;28;19928;-39
2023/04/06 11:03:59;;;;;;;;;;;;;;;7.30;52.38;92900.16;5030056;28;19963;-39
2023/04/06 11:06:26;;;;;;;;;;;;;;;6.86;53.60;92898.59;5031654;28;20019;-39
2023/04/06 11:08:52;;;;;;;;;;;;;;;7.10;53.96;92897.50;5032154;28;19951;-39
2023/04/06 11:11:18;;;;;;;;;;;;;;;6.89;54.24;92895.50;5032191;28;20412;-39
2023/04/06 11:13:44;;;;;;;;;;;;;;;7.28;53.75;92886.25;5031763;28;19921;-39
2023/04/06 11:16:14;;;;;;;;;;;;;;;7.21;53.32;92888.97;5032087;28;19913;-39
2023/04/06 11:18:46;;;;;;;;;;;;;;;7.53;53.48;92884.56;5032479;28;19913;-39
2023/04/06 11:21:11;;;;;;;;;;;;;;;7.48;53.81;92887.44;5032331;28;19917;-39
2023/04/06 11:23:37;;;;;;;;;;;;;;;8.22;50.60;92872.50;5047829;28;19916;-39
2023/04/06 11:26:02;;;;;;;;;;;;;;;7.29;51.92;92879.50;5032302;28;19923;-39
2023/04/06 11:28:27;;;;;;;;;;;;;;;8.87;48.65;92890.19;5031869;28;20290;-39
2023/04/06 11:30:53;;;;;;;;;;;;;;;9.09;50.75;92883.94;5031986;28;20015;-39
2023/04/06 11:33:22;;;;;;;;;;;;;;;10.23;47.56;92880.81;5051010;28;19924;-39
2023/04/06 11:35:48;;;;;;;;;;;;;;;10.40;46.34;92876.09;5031744;28;19921;-39
2023/04/06 11:38:13;;;;;;;;;;;;;;;10.23;46.69;92870.50;5030550;28;19920;-39
2023/04/06 11:40:38;;;;;;;;;;;;;;;10.20;47.24;92866.09;5031790;28;19920;-39
2023/04/06 11:43:04;;;;;;;;;;;;;;;9.96;45.30;92860.50;5032113;28;19920;-40
2023/04/06 11:45:39;;;;;;;;;;;;;;;9.99;45.03;92873.91;5031526;28;19983;-39
2023/04/06 11:48:04;;;;;;;;;;;;;;;9.71;46.38;92857.66;5031595;28;19913;-39
2023/04/06 11:50:36;;;;;;;;;;;;;;;9.91;45.84;92870.47;5031459;28;19983;-39
2023/04/06 11:53:02;;;;;;;;;;;;;;;9.73;44.71;92864.09;5031452;28;19966;-39
2023/04/06 11:55:27;;;;;;;;;;;;;;;9.62;46.88;92864.50;5036553;28;19967;-40
2023/04/06 11:57:53;;;;;;;;;;;;;;;10.08;45.72;92859.53;5051552;28;19917;-39
2023/04/06 12:00:20;;;;;;;;;;;;;;;10.62;44.82;92855.16;5051075;28;19974;-40
2023/04/06 12:02:46;;;;;;;;;;;;;;;10.84;45.01;92856.28;5051185;28;19923;-39
2023/04/06 12:05:11;;;;;;;;;;;;;;;11.73;42.96;92853.22;5032896;28;19925;-39
2023/04/06 12:07:36;;;;;;;;;;;;;;;12.16;40.76;92847.72;5031076;28;19927;-39
2023/04/06 12:10:02;;;;;;;;;;;;;;;12.05;41.68;92848.22;5031071;28;20384;-39
2023/04/06 12:12:27;;;;;;;;;;;;;;;12.23;41.12;92851.69;5031341;28;19917;-39
2023/04/06 12:14:53;;;;;;;;;;;;;;;11.84;40.82;92853.47;5031474;28;19914;-40
2023/04/06 12:17:18;;;;;;;;;;;;;;;12.50;40.50;92844.09;5029974;28;20429;-40
2023/04/06 12:19:44;;;;;;;;;;;;;;;12.18;40.58;92858.94;5031022;28;19917;-39
2023/04/06 12:22:09;;;;;;;;;;;;;;;12.01;41.33;92858.22;5031119;28;19951;-39
2023/04/06 12:24:34;;;;;;;;;;;;;;;11.25;41.75;92847.25;5030447;28;19925;-39
2023/04/06 12:27:01;;;;;;;;;;;;;;;11.19;43.62;92850.28;5030748;28;19913;-39
2023/04/06 12:29:26;;;;;;;;;;;;;;;11.07;42.58;92851.28;5030773;28;20380;-40
2023/04/06 12:31:52;;;;;;;;;;;;;;;11.01;43.88;92846.00;5030308;28;19917;-39
2023/04/06 12:34:18;;;;;;;;;;;;;;;11.37;41.80;92851.72;5040596;28;19917;-39
2023/04/06 12:36:43;;;;;;;;;;;;;;;10.10;45.04;92839.66;5050803;28;19950;-39
2023/04/06 12:39:08;;;;;;;;;;;;;;;9.29;45.19;92853.97;5050499;28;19919;-39
2023/04/06 12:41:34;;;;;;;;;;;;;;;9.53;44.31;92851.31;5050624;28;19912;-39
2023/04/06 12:44:00;;;;;;;;;;;;;;;9.55;44.92;92856.28;5050277;28;19920;-39